Time;durP1;ratioP1;P1;durP2;ratioP2;P2;SDS_P1;SDS_P2;PMS_P1;PMS_P2;Temp;Humidity;BMP_temperature;BMP_pressure;BME280_temperature;BME280_humidity;BME280_pressure;Samples;Min_cycle;Max_cycle;Signal;HPM_P1;HPM_P2
2021/04/22 00:00:32;;;;;;;18.48;15.90;;;11.30;52.20;;;;;;6140781;23;20326;-73
2021/04/22 00:02:59;;;;;;;19.95;16.23;;;11.30;52.40;;;;;;6128023;23;20370;-74
2021/04/22 00:05:28;;;;;;;21.67;16.38;;;11.30;51.40;;;;;;6127316;23;20192;-73
2021/04/22 00:07:56;;;;;;;21.75;17.63;;;11.20;52.20;;;;;;6126856;23;20212;-73
2021/04/22 00:10:29;;;;;;;20.92;16.95;;;11.10;52.80;;;;;;6127060;23;20216;-73
2021/04/22 00:12:55;;;;;;;21.13;18.17;;;11.10;51.40;;;;;;6126434;23;20441;-72
2021/04/22 00:15:22;;;;;;;26.65;20.15;;;11.00;52.90;;;;;;6127092;23;20176;-73
2021/04/22 00:17:50;;;;;;;22.83;19.92;;;11.00;51.70;;;;;;6127256;23;20241;-73
2021/04/22 00:20:17;;;;;;;24.42;20.58;;;11.00;51.90;;;;;;6127352;23;20192;-72
2021/04/22 00:22:44;;;;;;;24.58;21.02;;;11.10;50.40;;;;;;6126547;23;20854;-73
2021/04/22 00:25:11;;;;;;;24.13;20.55;;;11.00;50.60;;;;;;6127427;23;20276;-72
2021/04/22 00:27:39;;;;;;;28.52;21.55;;;11.00;50.50;;;;;;6127893;23;20216;-72
2021/04/22 00:30:08;;;;;;;25.65;21.05;;;10.90;50.80;;;;;;6144568;23;20185;-72
2021/04/22 00:32:35;;;;;;;27.83;21.75;;;10.90;50.00;;;;;;6144492;23;20240;-72
2021/04/22 00:35:01;;;;;;;25.95;23.13;;;10.90;50.60;;;;;;6136376;23;20499;-73
2021/04/22 00:37:28;;;;;;;30.25;23.55;;;10.90;50.10;;;;;;6126747;23;20187;-72
2021/04/22 00:39:54;;;;;;;26.10;21.33;;;10.90;50.00;;;;;;6127361;23;20212;-74
2021/04/22 00:42:20;;;;;;;30.23;23.42;;;11.00;50.20;;;;;;6126440;23;20226;-73
2021/04/22 00:44:49;;;;;;;28.95;23.48;;;11.00;50.20;;;;;;6127049;23;20212;-72
2021/04/22 00:47:17;;;;;;;31.35;23.30;;;11.00;50.30;;;;;;6127201;23;20264;-73
2021/04/22 00:49:44;;;;;;;27.45;22.85;;;11.00;51.30;;;;;;6126855;23;20643;-73
2021/04/22 00:52:10;;;;;;;29.52;22.55;;;11.10;50.30;;;;;;6127067;23;20200;-73
2021/04/22 00:54:39;;;;;;;30.25;22.73;;;11.10;50.30;;;;;;6127055;23;20678;-74
2021/04/22 00:57:06;;;;;;;31.20;23.17;;;11.10;50.30;;;;;;6126823;23;20181;-73
2021/04/22 00:59:33;;;;;;;30.17;23.20;;;11.10;50.30;;;;;;6126151;23;20251;-72
2021/04/22 01:02:00;;;;;;;33.13;22.17;;;11.10;50.30;;;;;;6125254;23;20184;-72
2021/04/22 01:04:27;;;;;;;28.23;21.88;;;11.10;50.30;;;;;;6125720;23;20204;-73
2021/04/22 01:06:54;;;;;;;28.40;24.13;;;11.10;50.30;;;;;;6125720;23;20252;-74
2021/04/22 01:09:20;;;;;;;28.08;23.38;;;11.10;50.30;;;;;;6125535;23;20247;-72
2021/04/22 01:11:47;;;;;;;30.63;21.70;;;11.10;50.30;;;;;;6125160;23;20196;-73
2021/04/22 01:14:13;;;;;;;27.45;23.10;;;11.10;50.40;;;;;;6124814;23;20609;-73
2021/04/22 01:16:39;;;;;;;30.38;22.85;;;11.10;50.30;;;;;;6125802;23;20801;-73
2021/04/22 01:19:06;;;;;;;29.73;23.42;;;11.10;50.30;;;;;;6132201;23;20208;-74
2021/04/22 01:21:34;;;;;;;27.73;23.50;;;11.10;51.70;;;;;;6141966;23;20188;-72
2021/04/22 01:24:01;;;;;;;29.45;23.13;;;11.10;53.80;;;;;;6143981;23;20188;-72
2021/04/22 01:26:27;;;;;;;26.95;22.73;;;11.00;54.40;;;;;;6146509;23;20295;-72
2021/04/22 01:28:54;;;;;;;32.55;21.70;;;10.90;55.70;;;;;;6144950;23;20378;-72
2021/04/22 01:31:22;;;;;;;29.88;24.00;;;10.90;56.90;;;;;;6144767;23;20196;-73
2021/04/22 01:33:49;;;;;;;34.25;24.88;;;10.80;57.20;;;;;;6146041;23;20224;-73
2021/04/22 01:36:15;;;;;;;28.65;23.88;;;10.80;57.20;;;;;;6146006;23;20172;-73
2021/04/22 01:38:43;;;;;;;30.65;23.42;;;10.80;57.90;;;;;;6137860;23;20215;-73
2021/04/22 01:41:09;;;;;;;30.67;25.10;;;10.80;59.40;;;;;;6142684;23;20193;-74
2021/04/22 01:43:36;;;;;;;28.70;23.73;;;10.70;60.00;;;;;;6144075;23;20200;-73
2021/04/22 01:46:02;;;;;;;33.55;25.20;;;10.70;60.70;;;;;;6139079;23;20176;-73
2021/04/22 01:48:29;;;;;;;32.58;24.35;;;10.60;61.80;;;;;;6137378;23;20204;-73
2021/04/22 01:50:55;;;;;;;33.33;25.88;;;10.60;61.10;;;;;;6136977;23;20455;-73
2021/04/22 01:53:23;;;;;;;30.65;23.35;;;10.60;61.30;;;;;;6135542;23;20205;-73
2021/04/22 01:55:52;;;;;;;32.38;25.50;;;10.50;61.00;;;;;;6137266;23;20403;-72
2021/04/22 01:58:22;;;;;;;34.72;25.35;;;10.50;61.70;;;;;;6136493;23;20509;-72
2021/04/22 02:00:51;;;;;;;34.05;24.30;;;10.50;61.20;;;;;;6137383;23;20164;-72
2021/04/22 02:03:18;;;;;;;30.73;24.42;;;10.40;61.50;;;;;;6134898;23;20778;-73
2021/04/22 02:05:44;;;;;;;29.02;24.38;;;10.30;62.40;;;;;;6135167;23;20203;-73
2021/04/22 02:08:11;;;;;;;33.22;25.75;;;10.30;63.50;;;;;;6130200;23;20184;-73
2021/04/22 02:10:40;;;;;;;31.65;24.48;;;10.20;63.30;;;;;;6125522;23;20185;-74
2021/04/22 02:13:09;;;;;;;32.40;24.50;;;10.10;63.60;;;;;;6125413;23;20204;-72
2021/04/22 02:15:36;;;;;;;31.08;23.60;;;10.10;64.60;;;;;;6126663;23;20256;-73
2021/04/22 02:18:03;;;;;;;36.15;25.30;;;10.00;64.10;;;;;;6126595;23;20231;-74
2021/04/22 02:20:30;;;;;;;33.33;24.50;;;10.00;63.20;;;;;;6126402;23;20196;-74
2021/04/22 02:22:57;;;;;;;31.30;23.70;;;10.00;63.10;;;;;;6124721;23;20655;-74
2021/04/22 02:25:26;;;;;;;28.33;23.40;;;10.00;60.90;;;;;;6124673;23;20554;-73
2021/04/22 02:27:54;;;;;;;31.55;23.40;;;10.00;60.60;;;;;;6124977;23;20259;-74
2021/04/22 02:30:23;;;;;;;34.75;24.63;;;10.00;61.50;;;;;;6124271;23;20651;-73
2021/04/22 02:32:50;;;;;;;33.17;25.13;;;9.90;64.00;;;;;;6124248;23;20232;-73
2021/04/22 02:35:20;;;;;;;31.10;23.45;;;9.90;64.00;;;;;;6124717;23;20180;-73
2021/04/22 02:37:47;;;;;;;28.85;24.88;;;9.90;65.00;;;;;;6125858;23;20252;-73
2021/04/22 02:40:16;;;;;;;34.20;24.35;;;9.80;64.60;;;;;;6124802;23;20264;-73
2021/04/22 02:42:43;;;;;;;30.95;23.90;;;9.80;64.10;;;;;;6123800;23;20253;-74
2021/04/22 02:45:12;;;;;;;35.28;24.65;;;9.70;64.50;;;;;;6125094;23;20260;-73
2021/04/22 02:47:39;;;;;;;31.67;25.20;;;9.60;64.30;;;;;;6125700;23;20200;-74
2021/04/22 02:50:09;;;;;;;33.40;24.38;;;9.60;64.70;;;;;;6125184;23;20236;-73
2021/04/22 02:52:35;;;;;;;31.70;24.13;;;9.50;64.50;;;;;;6124579;23;20255;-74
2021/04/22 02:55:02;;;;;;;32.75;24.08;;;9.50;65.00;;;;;;6125007;23;20231;-74
2021/04/22 02:57:28;;;;;;;35.28;25.88;;;9.50;64.90;;;;;;6124743;23;20263;-73
2021/04/22 02:59:55;;;;;;;33.33;25.13;;;9.40;65.90;;;;;;6125171;23;20191;-73
2021/04/22 03:02:21;;;;;;;32.25;24.00;;;9.30;66.10;;;;;;6124757;23;20186;-73
2021/04/22 03:04:48;;;;;;;30.08;25.27;;;9.20;66.90;;;;;;6124667;23;20263;-72
2021/04/22 03:07:15;;;;;;;36.03;28.52;;;9.10;67.80;;;;;;6124141;23;20208;-73
2021/04/22 03:09:41;;;;;;;35.15;24.80;;;9.10;67.80;;;;;;6124910;23;20208;-73
2021/04/22 03:12:09;;;;;;;36.75;25.52;;;9.10;67.80;;;;;;6124216;23;20207;-74
2021/04/22 03:14:35;;;;;;;34.55;26.17;;;9.00;67.70;;;;;;6131434;23;20184;-72
2021/04/22 03:17:02;;;;;;;32.45;25.35;;;9.00;68.30;;;;;;6145370;23;20185;-73
2021/04/22 03:19:29;;;;;;;41.47;25.83;;;9.00;68.50;;;;;;6146125;23;20184;-72
2021/04/22 03:21:56;;;;;;;35.22;25.73;;;9.00;68.70;;;;;;6148571;23;20212;-72
2021/04/22 03:24:22;;;;;;;32.03;23.52;;;8.90;68.40;;;;;;6145780;23;20204;-73
2021/04/22 03:26:49;;;;;;;36.28;26.10;;;8.90;69.00;;;;;;6141212;23;20180;-73
2021/04/22 03:29:15;;;;;;;33.22;24.90;;;8.80;70.20;;;;;;6130554;23;20219;-73
2021/04/22 03:31:41;;;;;;;35.55;23.92;;;8.80;70.60;;;;;;6126942;23;20200;-72
2021/04/22 03:34:08;;;;;;;34.60;24.45;;;8.80;70.40;;;;;;6132031;23;20235;-73
2021/04/22 03:36:34;;;;;;;36.25;25.85;;;8.70;70.20;;;;;;6147769;23;20185;-73
2021/04/22 03:39:03;;;;;;;34.08;23.95;;;8.70;71.00;;;;;;6147634;23;20165;-72
2021/04/22 03:41:29;;;;;;;31.70;24.98;;;8.70;71.50;;;;;;6146493;23;20191;-74
2021/04/22 03:43:56;;;;;;;33.95;25.05;;;8.60;71.30;;;;;;6148084;23;20256;-73
2021/04/22 03:46:22;;;;;;;36.15;25.25;;;8.60;72.20;;;;;;6143599;23;20190;-73
2021/04/22 03:48:50;;;;;;;34.03;24.67;;;8.50;73.00;;;;;;6124975;23;20212;-72
2021/04/22 03:51:16;;;;;;;36.45;25.90;;;8.40;72.70;;;;;;6124030;23;20230;-73
2021/04/22 03:53:43;;;;;;;32.75;23.90;;;8.40;73.10;;;;;;6124451;23;20549;-74
2021/04/22 03:56:10;;;;;;;29.35;23.60;;;8.40;73.30;;;;;;6124464;23;20230;-74
2021/04/22 03:58:37;;;;;;;34.60;25.17;;;8.40;73.20;;;;;;6126997;23;20181;-73
2021/04/22 04:01:03;;;;;;;35.53;24.85;;;8.40;73.30;;;;;;6124341;23;20223;-73
2021/04/22 04:03:30;;;;;;;32.10;23.90;;;8.30;73.00;;;;;;6124134;23;20206;-74
2021/04/22 04:05:56;;;;;;;33.83;23.67;;;8.30;73.10;;;;;;6125735;23;20236;-73
2021/04/22 04:08:23;;;;;;;32.85;24.40;;;8.30;73.90;;;;;;6124347;23;20180;-73
2021/04/22 04:10:49;;;;;;;37.28;24.23;;;8.20;74.60;;;;;;6124701;23;20209;-75
2021/04/22 04:13:16;;;;;;;34.35;24.05;;;8.20;74.90;;;;;;6125923;23;20647;-75
2021/04/22 04:15:46;;;;;;;37.17;25.50;;;8.20;74.70;;;;;;6125339;23;20526;-74
2021/04/22 04:18:13;;;;;;;34.50;24.95;;;8.10;75.00;;;;;;6126153;23;20184;-73
2021/04/22 04:20:40;;;;;;;34.88;25.17;;;8.10;74.90;;;;;;6125566;23;20490;-75
2021/04/22 04:23:06;;;;;;;32.83;23.48;;;8.00;75.50;;;;;;6125560;23;20251;-74
2021/04/22 04:25:33;;;;;;;28.77;23.42;;;8.00;75.50;;;;;;6125568;23;20226;-74
2021/04/22 04:27:59;;;;;;;35.88;24.45;;;8.00;75.50;;;;;;6125380;23;20560;-74
2021/04/22 04:30:27;;;;;;;35.78;24.27;;;8.00;75.50;;;;;;6125399;23;20185;-74
2021/04/22 04:32:53;;;;;;;32.90;21.88;;;8.00;75.50;;;;;;6124324;23;20675;-74
2021/04/22 04:35:20;;;;;;;32.33;21.73;;;8.00;75.50;;;;;;6126063;23;20214;-73
2021/04/22 04:37:47;;;;;;;32.33;21.77;;;8.00;75.50;;;;;;6126289;23;20184;-74
2021/04/22 04:40:15;;;;;;;30.08;21.08;;;8.10;74.80;;;;;;6126216;23;20255;-74
2021/04/22 04:42:42;;;;;;;29.13;20.15;;;8.00;74.60;;;;;;6138291;23;20204;-74
2021/04/22 04:45:12;;;;;;;29.65;20.23;;;8.10;72.30;;;;;;6133778;23;20181;-74
2021/04/22 04:47:39;;;;;;;28.98;20.42;;;8.10;72.00;;;;;;6134598;23;20224;-73
2021/04/22 04:50:07;;;;;;;27.52;20.85;;;8.10;71.80;;;;;;6129345;23;20264;-74
2021/04/22 04:52:34;;;;;;;28.20;20.02;;;8.10;72.30;;;;;;6130242;23;20212;-73
2021/04/22 04:55:00;;;;;;;30.50;20.52;;;8.10;72.70;;;;;;6131515;23;20275;-73
2021/04/22 04:57:28;;;;;;;24.10;17.65;;;8.20;71.60;;;;;;6131375;23;20647;-75
2021/04/22 04:59:55;;;;;;;22.55;16.95;;;8.20;69.50;;;;;;6132510;23;20176;-74
2021/04/22 05:02:21;;;;;;;24.70;17.23;;;8.30;69.10;;;;;;6131115;23;20643;-74
2021/04/22 05:04:52;;;;;;;25.48;17.83;;;8.40;69.10;;;;;;6131281;23;20185;-74
2021/04/22 05:07:19;;;;;;;23.65;15.85;;;8.50;67.30;;;;;;6131921;23;20181;-73
2021/04/22 05:09:45;;;;;;;25.30;16.25;;;8.50;67.20;;;;;;6129868;23;20203;-74
2021/04/22 05:12:12;;;;;;;24.45;16.27;;;8.60;66.90;;;;;;6130280;23;20244;-72
2021/04/22 05:14:38;;;;;;;20.92;15.18;;;8.70;65.40;;;;;;6130097;23;20296;-74
2021/04/22 05:17:05;;;;;;;22.83;14.70;;;8.80;64.20;;;;;;6127836;23;20200;-74
2021/04/22 05:19:31;;;;;;;19.25;13.70;;;9.00;63.30;;;;;;6126110;23;20754;-73
2021/04/22 06:00:49;;;;;;;14.10;8.52;;;10.10;49.80;;;;;;6143964;23;20227;-79
2021/04/22 06:13:26;;;;;;;12.88;6.60;;;10.20;45.80;;;;;;6090009;23;20225;-74
2021/04/22 06:15:53;;;;;;;11.18;7.28;;;10.00;44.80;;;;;;6132995;23;20220;-74
2021/04/22 06:18:20;;;;;;;9.88;6.45;;;9.90;46.40;;;;;;6147828;23;20196;-74
2021/04/22 06:20:46;;;;;;;12.80;6.55;;;9.70;46.50;;;;;;6146895;23;20216;-74
2021/04/22 06:23:13;;;;;;;8.07;6.25;;;9.50;47.50;;;;;;6130621;23;20260;-75
2021/04/22 06:25:39;;;;;;;13.32;7.15;;;9.40;47.00;;;;;;6126064;23;20212;-74
2021/04/22 06:28:06;;;;;;;10.23;6.38;;;9.30;47.80;;;;;;6126656;23;20568;-75
2021/04/22 06:30:33;;;;;;;14.57;5.70;;;9.30;46.40;;;;;;6125698;23;20185;-74
2021/04/22 06:33:00;;;;;;;12.23;6.32;;;9.20;47.20;;;;;;6125222;23;20205;-75
2021/04/22 06:35:27;;;;;;;10.25;5.78;;;9.30;47.30;;;;;;6126636;23;20263;-75
2021/04/22 06:37:53;;;;;;;16.85;7.15;;;9.40;46.80;;;;;;6124630;23;20259;-75
2021/04/22 06:40:22;;;;;;;13.00;6.25;;;9.30;45.70;;;;;;6122732;23;20654;-74
2021/04/22 06:42:49;;;;;;;11.38;5.97;;;9.40;45.90;;;;;;6124419;23;20196;-74
2021/04/22 06:45:16;;;;;;;10.55;5.13;;;9.50;45.00;;;;;;6124333;23;20228;-74
2021/04/22 06:47:43;;;;;;;14.40;6.05;;;9.70;45.10;;;;;;6124997;23;20495;-74
2021/04/22 06:50:14;;;;;;;11.38;5.55;;;9.80;44.60;;;;;;6124382;23;20188;-74
2021/04/22 06:52:41;;;;;;;13.75;5.70;;;9.90;44.10;;;;;;6124922;23;20267;-75
2021/04/22 06:55:12;;;;;;;9.02;5.20;;;10.00;42.60;;;;;;6125017;23;20283;-73
2021/04/22 06:57:38;;;;;;;8.10;5.53;;;10.10;41.90;;;;;;6124767;23;20239;-76
2021/04/22 07:00:08;;;;;;;13.07;6.43;;;10.10;41.50;;;;;;6125326;23;20709;-76
2021/04/22 07:02:34;;;;;;;10.60;5.82;;;10.10;39.80;;;;;;6124845;23;20208;-76
2021/04/22 07:05:01;;;;;;;9.20;5.57;;;10.30;40.20;;;;;;6125637;23;20284;-77
2021/04/22 07:07:28;;;;;;;10.57;5.15;;;10.40;39.90;;;;;;6124924;23;20192;-75
2021/04/22 07:09:54;;;;;;;11.43;5.78;;;10.30;39.80;;;;;;6124163;23;20224;-73
2021/04/22 07:12:21;;;;;;;10.60;4.97;;;10.40;39.90;;;;;;6125218;23;20280;-76
2021/04/22 07:14:47;;;;;;;9.07;6.53;;;10.80;39.10;;;;;;6126300;23;20220;-76
2021/04/22 07:17:14;;;;;;;10.50;6.10;;;10.90;37.80;;;;;;6133078;23;20294;-74
2021/04/22 07:19:40;;;;;;;16.38;5.45;;;10.40;38.40;;;;;;6140348;23;20287;-75
2021/04/22 07:22:07;;;;;;;9.25;5.50;;;10.00;39.50;;;;;;6136760;23;20180;-73
2021/04/22 07:24:34;;;;;;;11.55;5.55;;;9.90;40.40;;;;;;6125004;23;20251;-73
2021/04/22 07:27:00;;;;;;;12.02;5.80;;;9.90;40.40;;;;;;6124863;23;20255;-74
2021/04/22 07:29:27;;;;;;;12.55;5.38;;;9.90;40.40;;;;;;6130018;23;20549;-76
2021/04/22 07:31:53;;;;;;;16.73;6.15;;;10.00;38.60;;;;;;6127244;23;20206;-75
2021/04/22 07:34:20;;;;;;;12.15;5.85;;;10.00;38.60;;;;;;6124809;23;20291;-74
2021/04/22 07:36:46;;;;;;;13.77;5.70;;;10.20;38.20;;;;;;6125627;23;20192;-74
2021/04/22 07:39:12;;;;;;;11.77;5.50;;;10.20;37.10;;;;;;6124142;23;20220;-74
2021/04/22 07:41:40;;;;;;;10.68;5.63;;;10.40;36.30;;;;;;6124009;23;20201;-75
2021/04/22 07:44:07;;;;;;;8.70;4.60;;;10.70;36.60;;;;;;6123860;23;20204;-74
2021/04/22 07:46:33;;;;;;;6.90;4.55;;;10.80;35.60;;;;;;6126214;23;20300;-76
2021/04/22 07:49:00;;;;;;;12.15;4.90;;;10.90;35.30;;;;;;6125275;23;20212;-75
2021/04/22 07:51:26;;;;;;;10.75;5.00;;;11.10;34.70;;;;;;6126192;23;20211;-76
2021/04/22 07:53:53;;;;;;;10.00;4.97;;;11.40;34.20;;;;;;6124366;23;20550;-73
2021/04/22 07:56:19;;;;;;;7.20;4.47;;;10.90;34.70;;;;;;6124535;23;20184;-74
2021/04/22 07:58:47;;;;;;;10.27;4.93;;;10.80;34.80;;;;;;6126233;23;20192;-74
2021/04/22 08:01:13;;;;;;;7.88;4.45;;;10.70;34.50;;;;;;6129357;23;20220;-73
2021/04/22 08:03:40;;;;;;;9.55;5.00;;;10.70;33.20;;;;;;6125046;23;20232;-74
2021/04/22 08:06:06;;;;;;;12.23;6.65;;;10.60;33.80;;;;;;6123768;23;20184;-77
2021/04/22 08:08:33;;;;;;;7.90;4.88;;;10.50;34.10;;;;;;6128805;23;20271;-75
2021/04/22 08:11:01;;;;;;;7.93;4.85;;;10.50;34.30;;;;;;6126463;23;20212;-72
2021/04/22 08:13:27;;;;;;;8.80;5.00;;;10.60;33.60;;;;;;6124697;23;20212;-75
2021/04/22 08:15:56;;;;;;;8.85;4.80;;;10.40;33.00;;;;;;6126594;23;20683;-75
2021/04/22 08:18:25;;;;;;;7.95;4.25;;;10.40;33.40;;;;;;6126739;23;20658;-74
2021/04/22 08:20:54;;;;;;;6.18;4.22;;;10.60;33.00;;;;;;6126699;23;20638;-74
2021/04/22 08:23:21;;;;;;;11.55;4.72;;;10.20;34.40;;;;;;6127161;23;20177;-75
2021/04/22 08:25:54;;;;;;;11.48;4.95;;;10.20;33.70;;;;;;6126790;23;20184;-74
2021/04/22 08:28:21;;;;;;;10.65;5.45;;;10.30;32.60;;;;;;6126501;23;20751;-74
2021/04/22 08:30:51;;;;;;;10.88;4.22;;;10.20;33.10;;;;;;6126998;23;20181;-74
2021/04/22 08:33:22;;;;;;;9.30;5.00;;;10.50;33.30;;;;;;6126241;23;20231;-74
2021/04/22 08:35:49;;;;;;;9.45;4.88;;;10.60;31.80;;;;;;6127452;23;20179;-74
2021/04/22 08:38:16;;;;;;;11.90;4.57;;;10.40;32.50;;;;;;6127655;23;20232;-75
2021/04/22 08:40:43;;;;;;;12.20;3.90;;;10.60;32.70;;;;;;6128541;23;20191;-75
2021/04/22 08:43:11;;;;;;;10.82;4.50;;;10.60;32.00;;;;;;6126512;23;20268;-75
2021/04/22 08:45:38;;;;;;;9.30;5.05;;;10.90;30.80;;;;;;6128523;23;20232;-75
2021/04/22 08:48:06;;;;;;;14.77;4.50;;;10.90;30.30;;;;;;6129117;23;20183;-75
2021/04/22 08:50:35;;;;;;;9.52;4.57;;;10.70;30.10;;;;;;6135699;23;20204;-75
2021/04/22 08:53:05;;;;;;;9.93;5.20;;;10.60;30.00;;;;;;6145305;23;20196;-74
2021/04/22 08:55:33;;;;;;;10.95;4.18;;;10.80;30.20;;;;;;6145888;23;20240;-75
2021/04/22 08:58:01;;;;;;;9.55;4.10;;;11.00;28.90;;;;;;6140785;23;20216;-75
2021/04/22 09:00:31;;;;;;;8.77;4.00;;;11.10;27.30;;;;;;6129896;23;20217;-75
2021/04/22 09:02:57;;;;;;;10.15;4.93;;;11.20;26.80;;;;;;6129521;23;20663;-75
2021/04/22 09:05:24;;;;;;;7.00;3.33;;;11.10;25.90;;;;;;6129588;23;20252;-76
2021/04/22 09:07:52;;;;;;;7.40;3.03;;;10.90;25.60;;;;;;6138651;23;20411;-76
2021/04/22 09:10:23;;;;;;;4.57;2.97;;;10.70;26.80;;;;;;6147615;23;20638;-75
2021/04/22 09:12:58;;;;;;;6.30;3.55;;;10.80;26.60;;;;;;6139686;23;20197;-76
2021/04/22 09:15:25;;;;;;;7.00;3.38;;;10.90;25.00;;;;;;6126462;23;20239;-77
2021/04/22 09:18:00;;;;;;;7.57;3.50;;;10.80;25.20;;;;;;6127119;23;20527;-77
2021/04/22 09:20:29;;;;;;;4.47;2.75;;;10.90;25.50;;;;;;6127343;23;20613;-76
2021/04/22 09:22:57;;;;;;;11.00;3.78;;;11.00;25.00;;;;;;6132212;23;20216;-76
2021/04/22 09:25:26;;;;;;;7.05;3.65;;;11.40;25.00;;;;;;6134967;23;20219;-77
2021/04/22 09:27:56;;;;;;;5.60;2.90;;;11.70;24.10;;;;;;6142862;23;20193;-76
2021/04/22 09:30:35;;;;;;;6.47;2.80;;;11.80;23.00;;;;;;6132993;23;20184;-76
2021/04/22 09:33:02;;;;;;;7.07;2.80;;;11.40;23.20;;;;;;6126161;23;20216;-76
2021/04/22 09:35:28;;;;;;;13.35;3.63;;;11.70;22.90;;;;;;6125319;23;20212;-77
2021/04/22 09:37:56;;;;;;;6.03;2.85;;;12.00;22.00;;;;;;6126675;23;20173;-76
2021/04/22 09:40:26;;;;;;;5.28;2.70;;;12.10;21.20;;;;;;6126336;23;20686;-77
2021/04/22 09:42:54;;;;;;;7.78;3.00;;;12.10;21.80;;;;;;6128337;23;20183;-76
2021/04/22 09:45:24;;;;;;;5.80;2.70;;;11.90;20.80;;;;;;6128093;23;20540;-76
2021/04/22 09:47:51;;;;;;;4.53;2.70;;;11.80;20.10;;;;;;6127418;23;20181;-77
2021/04/22 09:50:22;;;;;;;6.82;2.80;;;11.40;21.00;;;;;;6127626;23;20570;-76
2021/04/22 09:52:53;;;;;;;9.13;3.30;;;11.60;21.00;;;;;;6127689;23;20196;-76
2021/04/22 09:55:22;;;;;;;5.20;2.45;;;11.20;21.60;;;;;;6125787;23;20200;-75
2021/04/22 09:57:49;;;;;;;7.30;2.58;;;11.60;21.00;;;;;;6126454;23;20204;-75
2021/04/22 10:00:22;;;;;;;4.88;2.80;;;12.10;19.70;;;;;;6126202;23;20216;-77
2021/04/22 10:02:53;;;;;;;8.35;2.45;;;11.60;20.30;;;;;;6124654;23;20165;-76
2021/04/22 10:05:24;;;;;;;6.05;2.28;;;11.60;19.60;;;;;;6126133;23;20236;-76
2021/04/22 10:07:51;;;;;;;4.15;2.10;;;11.60;20.50;;;;;;6127073;23;20196;-76
2021/04/22 10:10:22;;;;;;;10.48;3.60;;;11.90;20.60;;;;;;6126788;23;20184;-76
2021/04/22 10:12:50;;;;;;;5.47;2.60;;;12.30;19.40;;;;;;6126595;23;20189;-76
2021/04/22 10:15:20;;;;;;;5.25;2.70;;;12.30;19.80;;;;;;6130094;23;20213;-75
2021/04/22 10:17:54;;;;;;;7.85;3.30;;;12.60;18.80;;;;;;6126667;23;20255;-76
2021/04/22 10:20:22;;;;;;;5.68;2.60;;;12.50;19.40;;;;;;6127018;23;20226;-76
2021/04/22 10:22:50;;;;;;;7.70;2.83;;;12.50;19.40;;;;;;6126340;23;20292;-76
2021/04/22 10:25:18;;;;;;;6.18;2.20;;;12.70;19.60;;;;;;6128084;23;20574;-76
2021/04/22 10:27:46;;;;;;;7.05;2.65;;;12.30;19.40;;;;;;6127594;23;20259;-76
2021/04/22 10:33:10;;;;;;;6.50;2.40;;;12.30;19.50;;;;;;6117085;23;20232;-77
2021/04/22 10:35:38;;;;;;;10.13;2.65;;;12.80;19.20;;;;;;6127327;23;20294;-76
2021/04/22 10:38:06;;;;;;;9.82;2.70;;;13.00;18.70;;;;;;6128577;23;20514;-76
2021/04/22 10:40:34;;;;;;;5.57;2.33;;;13.20;18.60;;;;;;6129338;23;20492;-76
2021/04/22 10:43:04;;;;;;;5.63;3.03;;;13.30;17.80;;;;;;6127232;23;20640;-77
2021/04/22 10:45:32;;;;;;;7.53;2.50;;;13.20;17.60;;;;;;6131102;23;20187;-75
2021/04/22 10:47:59;;;;;;;6.45;2.60;;;13.30;17.50;;;;;;6134309;23;20192;-76
2021/04/22 10:50:28;;;;;;;4.82;2.20;;;12.90;17.80;;;;;;6132474;23;20184;-77
2021/04/22 10:52:55;;;;;;;4.22;2.75;;;13.20;16.60;;;;;;6128894;23;20239;-76
2021/04/22 10:55:23;;;;;;;9.45;2.10;;;12.90;18.00;;;;;;6128452;23;20235;-76
2021/04/22 10:57:51;;;;;;;5.80;2.65;;;12.70;17.40;;;;;;6129116;23;20193;-75
2021/04/22 11:00:21;;;;;;;6.22;2.80;;;13.00;15.60;;;;;;6129046;23;20275;-76
2021/04/22 11:02:50;;;;;;;5.18;2.25;;;13.10;17.30;;;;;;6146949;23;20197;-76
2021/04/22 11:05:23;;;;;;;8.25;2.88;;;13.20;16.50;;;;;;6148794;23;20208;-77
2021/04/22 11:07:59;;;;;;;7.25;2.80;;;13.20;16.70;;;;;;6133483;23;20197;-76
2021/04/22 11:10:40;;;;;;;5.32;2.80;;;12.90;16.80;;;;;;6142006;23;20164;-77
2021/04/22 11:13:13;;;;;;;6.65;2.85;;;13.20;16.60;;;;;;6147290;23;20189;-76
2021/04/22 11:15:44;;;;;;;5.43;2.67;;;13.50;16.10;;;;;;6145961;23;20205;-76
2021/04/22 11:18:12;;;;;;;10.07;2.30;;;13.80;16.20;;;;;;6146808;23;20180;-76
2021/04/22 11:20:44;;;;;;;8.02;2.70;;;13.90;15.10;;;;;;6150063;23;20220;-76
2021/04/22 11:23:15;;;;;;;6.38;2.72;;;13.80;13.90;;;;;;6147694;23;20188;-76
2021/04/22 11:25:49;;;;;;;12.38;2.60;;;13.60;14.30;;;;;;6145532;23;20187;-75
2021/04/22 11:28:17;;;;;;;5.43;2.15;;;13.80;14.60;;;;;;6140494;23;20481;-74
2021/04/22 11:30:44;;;;;;;8.43;2.45;;;13.30;15.80;;;;;;6140403;23;20188;-75
2021/04/22 11:33:12;;;;;;;4.75;2.70;;;13.10;15.70;;;;;;6144624;23;20232;-75
2021/04/22 11:35:38;;;;;;;10.35;2.75;;;13.60;16.00;;;;;;6150374;23;20198;-76
2021/04/22 11:38:08;;;;;;;11.10;2.90;;;13.60;16.00;;;;;;6150219;23;20215;-74
2021/04/22 11:40:39;;;;;;;6.28;2.35;;;13.80;15.80;;;;;;6148412;23;20173;-74
2021/04/22 11:43:17;;;;;;;4.50;2.22;;;13.80;14.60;;;;;;6150680;23;20204;-74
2021/04/22 11:45:51;;;;;;;10.05;2.70;;;13.70;15.10;;;;;;6149378;23;20164;-74
2021/04/22 11:48:18;;;;;;;7.35;2.78;;;14.00;15.10;;;;;;6148375;23;20216;-74
2021/04/22 11:50:48;;;;;;;7.43;2.70;;;14.00;14.10;;;;;;6145993;23;20176;-76
2021/04/22 11:53:20;;;;;;;3.63;2.60;;;13.90;14.10;;;;;;6147558;23;20332;-77
2021/04/22 11:55:49;;;;;;;6.30;2.67;;;13.90;13.50;;;;;;6142508;23;20168;-76
2021/04/22 11:58:18;;;;;;;7.18;2.80;;;14.00;13.50;;;;;;6141921;23;20191;-75
2021/04/22 12:00:47;;;;;;;5.85;2.42;;;14.00;11.40;;;;;;6139826;23;20191;-75
2021/04/22 12:03:22;;;;;;;4.75;2.17;;;14.00;11.20;;;;;;6139835;23;20180;-75
2021/04/22 12:05:50;;;;;;;10.23;2.45;;;14.00;11.00;;;;;;6136241;23;20169;-76
2021/04/22 12:08:17;;;;;;;8.00;2.53;;;14.20;10.40;;;;;;6138651;23;20180;-76
2021/04/22 12:10:48;;;;;;;4.15;2.15;;;14.10;10.00;;;;;;6137911;23;20199;-77
2021/04/22 12:13:18;;;;;;;7.50;2.72;;;14.30;10.00;;;;;;6135602;23;20192;-74
2021/04/22 12:15:47;;;;;;;7.10;2.65;;;14.40;8.90;;;;;;6136045;23;20168;-74
2021/04/22 12:18:24;;;;;;;5.60;2.35;;;14.40;8.10;;;;;;6134689;23;20623;-74
2021/04/22 12:20:52;;;;;;;5.63;2.40;;;14.20;8.00;;;;;;6135072;23;20164;-74
2021/04/22 12:23:29;;;;;;;5.13;2.63;;;13.90;7.80;;;;;;6133376;23;20181;-74
2021/04/22 12:25:56;;;;;;;6.03;2.78;;;14.00;7.90;;;;;;6129161;23;20168;-74
2021/04/22 12:28:22;;;;;;;5.15;2.45;;;14.20;8.00;;;;;;6126818;23;20343;-75
2021/04/22 12:30:50;;;;;;;4.82;2.60;;;14.20;8.00;;;;;;6126674;23;20208;-75
2021/04/22 12:33:19;;;;;;;8.07;2.75;;;14.50;8.20;;;;;;6126243;23;20212;-75
2021/04/22 12:35:47;;;;;;;5.88;2.45;;;14.50;8.80;;;;;;6126406;23;20239;-74
2021/04/22 12:38:20;;;;;;;7.28;2.70;;;14.80;8.40;;;;;;6124797;23;20267;-73
2021/04/22 12:40:55;;;;;;;5.07;2.35;;;14.90;8.50;;;;;;6125966;23;20172;-75
2021/04/22 12:43:22;;;;;;;6.13;3.03;;;14.70;6.50;;;;;;6126734;23;20175;-74
2021/04/22 12:45:48;;;;;;;8.13;2.70;;;14.50;8.20;;;;;;6125075;23;20180;-75
2021/04/22 12:48:16;;;;;;;8.05;2.63;;;14.50;8.20;;;;;;6124989;23;20495;-75
2021/04/22 12:50:43;;;;;;;9.35;3.35;;;14.80;8.40;;;;;;6124344;23;20231;-73
2021/04/22 12:53:13;;;;;;;4.75;2.85;;;14.80;8.60;;;;;;6124358;23;20200;-76
2021/04/22 12:55:42;;;;;;;6.13;3.13;;;15.00;8.60;;;;;;6126731;23;20244;-75
2021/04/22 12:58:10;;;;;;;5.05;3.03;;;14.90;8.50;;;;;;6126355;23;20184;-75
2021/04/22 13:00:40;;;;;;;5.78;2.95;;;14.80;8.40;;;;;;6126872;23;20268;-74
2021/04/22 13:03:13;;;;;;;5.55;2.92;;;14.70;8.30;;;;;;6128101;23;20219;-74
2021/04/22 13:05:43;;;;;;;5.00;2.33;;;14.70;7.20;;;;;;6129026;23;20169;-75
2021/04/22 13:08:10;;;;;;;8.07;2.78;;;14.30;6.10;;;;;;6129457;23;20177;-75
2021/04/22 13:10:39;;;;;;;5.47;2.53;;;14.40;8.10;;;;;;6129532;23;20192;-74
2021/04/22 13:13:06;;;;;;;9.25;3.80;;;14.60;8.30;;;;;;6136559;23;20207;-74
2021/04/22 13:15:33;;;;;;;11.63;3.50;;;14.70;9.10;;;;;;6151448;23;20188;-74
2021/04/22 13:18:12;;;;;;;9.38;2.80;;;15.00;9.20;;;;;;6139757;23;20665;-75
2021/04/22 13:20:44;;;;;;;6.70;3.03;;;15.00;8.60;;;;;;6128217;23;20228;-75
2021/04/22 13:23:12;;;;;;;5.20;2.50;;;14.90;6.80;;;;;;6128633;23;20256;-76
2021/04/22 13:25:39;;;;;;;9.10;2.90;;;14.80;6.80;;;;;;6128574;23;20251;-75
2021/04/22 13:28:12;;;;;;;7.85;2.60;;;14.90;6.70;;;;;;6130365;23;20224;-75
2021/04/22 13:30:40;;;;;;;7.38;2.97;;;14.80;3.60;;;;;;6132876;23;20169;-77
2021/04/22 13:33:09;;;;;;;12.25;2.72;;;14.90;5.10;;;;;;6135581;23;20793;-76
2021/04/22 13:35:37;;;;;;;9.50;2.72;;;15.00;5.50;;;;;;6138770;23;20185;-74